Elizabeth City, North Carolina
Current Conditions -  °F | °C
As of 6:54 PM on Friday 24 Oct 2014 (Local Time) from KECG Reporting Station
Clear Clear  
Wind Chill: 59°   Ceiling: Unl
Heat Index: 59°   Visibility: 10mi
Dew Point: 47°   Wind: 6mph
Humidity: 64%   Direction: 240°WSW
Pressure: 29.94"   Gusts: NA
Location:  36.3°N, 76.22°W
Report Text: KECG 242254Z 24005KT 10SM CLR 15/08 A2994 RMK AO2 SLP137 T01500083
Loading
Personal Weather Stations






























Interactive Weather Map
Tropical Storm Tracking
New forecast layout! Learn more

10-Day Weather Forecast

Advertisements
Track Severe Weather on mobile